Rhapsody Of The Seas — C6UA2 — position and weather

sailwx.info

Track history (hours):
 
Tides and Currents Weather Stations Pressure Air Temp Water Temp Dewpoint Dewpoint Depression Visibility Wind Speed Wind Dir Waves Ship Positions

Rhapsody Of The Seas

Last reported at 2014-Jul-24 19:32 UTC. Time now 2014-Jul-24 20:12 UTC.
Position N 48°25' W 123°24'.

Type: Passenger vessel. MMSI: 311805000.

Date/timePositionNaut miles runAvg speedWind from/ knotsBaromVisibWave heightAir tempDewpointWater temp
2014-Jul-24 19:32N 48°25' W 123°24'0 0.0
2014-Jul-24 18:32N 48°25' W 123°24'0 0.0
2014-Jul-24 17:32N 48°25' W 123°24'0 0.0
2014-Jul-24 16:32N 48°25' W 123°24'0 0.0
2014-Jul-24 15:32N 48°25' W 123°24'5 5.5
2014-Jul-24 14:33N 48°20' W 123°24'1414.3
2014-Jul-24 13:33N 48°13' W 123°44'1818.5
2014-Jul-24 12:34N 48°18' W 124°10'1818.4
2014-Jul-24 11:34N 48°26' W 124°36'1716.4
2014-Jul-24 10:32N 48°29' W 125°00'2116.7
2014-Jul-24 09:16N 48°35' W 125°31'1216.9
2014-Jul-24 08:34N 48°42' W 125°46'1717.1
2014-Jul-24 07:33N 48°52' W 126°07'  
2014-Jul-19 11:00N 49°18' W 127°06'2819.7 240 / 231016.0 15.013.312.0
2014-Jul-19 09:33N 49°03' W 126°29'2323.0
2014-Jul-19 08:34N 48°48' W 126°03'2322.7
2014-Jul-19 07:33N 48°37' W 125°33'2121.3
2014-Jul-19 06:33N 48°31' W 125°02'2222.0
2014-Jul-19 05:34N 48°26' W 124°29'2221.8
2014-Jul-19 04:32N 48°18' W 123°58'2019.7
2014-Jul-19 03:33N 48°14' W 123°29'1311.1
2014-Jul-19 02:23N 48°12' W 123°10'1517.7
2014-Jul-19 01:33N 48°12' W 122°48'1717.5
2014-Jul-19 00:33N 47°57' W 122°33'1717.5
2014-Jul-18 23:33N 47°40' W 122°27'4 4.0
2014-Jul-18 22:32N 47°38' W 122°23'0 0.0
2014-Jul-18 21:32N 47°38' W 122°23'0 0.0
2014-Jul-18 20:29N 47°38' W 122°23'0 0.0
2014-Jul-18 19:32N 47°38' W 122°23'0 0.0
2014-Jul-18 18:32N 47°38' W 122°23'0 0.0
2014-Jul-18 17:32N 47°38' W 122°23'0 0.0
2014-Jul-18 16:32N 47°38' W 122°23'0 0.0
2014-Jul-18 15:32N 47°38' W 122°23'0 0.0
2014-Jul-18 14:32N 47°38' W 122°23'0 0.0
2014-Jul-18 13:32N 47°38' W 122°23'0 0.3
2014-Jul-18 12:33N 47°37' W 122°23'7 7.3
2014-Jul-18 11:32N 47°44' W 122°27'1212.2
2014-Jul-18 10:34N 47°56' W 122°31'1813.1
2014-Jul-18 09:10N 48°10' W 122°48'914.2
2014-Jul-18 08:31N 48°12' W 123°01'1414.4
2014-Jul-18 07:33N 48°11' W 123°22'9 8.6
2014-Jul-18 06:29N 48°13' W 123°35'7 2.4
2014-Jul-18 03:33N 48°16' W 123°45'8 8.0
2014-Jul-18 02:33N 48°15' W 123°33'7 7.5
2014-Jul-18 01:33N 48°21' W 123°26'4 4.5
2014-Jul-18 00:33N 48°25' W 123°24'0 0.0
2014-Jul-17 23:33N 48°25' W 123°24'0 0.0
2014-Jul-17 22:33N 48°25' W 123°24'0 0.0
2014-Jul-17 21:33N 48°25' W 123°24'0 0.0
2014-Jul-17 20:33N 48°25' W 123°24'0 0.0
2014-Jul-17 19:30N 48°25' W 123°24'0 0.0
2014-Jul-17 18:33N 48°25' W 123°24'0 0.0
2014-Jul-17 17:33N 48°25' W 123°24'0 0.0
2014-Jul-17 16:33N 48°25' W 123°24'0 0.0
2014-Jul-17 15:33N 48°25' W 123°24'6 6.1
2014-Jul-17 14:34N 48°19' W 123°25'1716.0
2014-Jul-17 13:32N 48°13' W 123°48'1818.6
2014-Jul-17 12:33N 48°19' W 124°13'1717.3
2014-Jul-17 11:34N 48°26' W 124°37'1716.5
2014-Jul-17 10:32N 48°29' W 125°02'1816.3
2014-Jul-17 09:25N 48°34' W 125°28'1517.1
2014-Jul-17 08:34N 48°43' W 125°47'1717.4
2014-Jul-17 07:34N 48°53' W 126°08'1817.6
2014-Jul-17 06:33N 49°03' W 126°30'1817.7
2014-Jul-17 05:33N 49°14' W 126°52'1817.8
2014-Jul-17 04:33N 49°25' W 127°13'1817.7
2014-Jul-17 03:33N 49°36' W 127°34'64713.3
2014-Jul-15 03:00N 59°24' W 135°18'   999 / 11020.0 1.1 18.014.810.0
Track history (hours):
 
Tides and Currents Weather Stations Pressure Air Temp Water Temp Dewpoint Dewpoint Depression Visibility Wind Speed Wind Dir Waves Ship Positions

Rhapsody Of The Seas

Last reported at 2014-Jul-24 19:32 UTC. Time now 2014-Jul-24 20:12 UTC.
Position N 48°25' W 123°24'.

Type: Passenger vessel. MMSI: 311805000.

Date/timePositionNaut miles runAvg speedWind from/ knotsBaromVisibWave heightAir tempDewpointWater temp
2014-Jul-24 19:32N 48°25' W 123°24'0 0.0
2014-Jul-24 18:32N 48°25' W 123°24'0 0.0
2014-Jul-24 17:32N 48°25' W 123°24'0 0.0
2014-Jul-24 16:32N 48°25' W 123°24'0 0.0
2014-Jul-24 15:32N 48°25' W 123°24'5 5.5
2014-Jul-24 14:33N 48°20' W 123°24'1414.3
2014-Jul-24 13:33N 48°13' W 123°44'1818.5
2014-Jul-24 12:34N 48°18' W 124°10'1818.4
2014-Jul-24 11:34N 48°26' W 124°36'1716.4
2014-Jul-24 10:32N 48°29' W 125°00'2116.7
2014-Jul-24 09:16N 48°35' W 125°31'1216.9
2014-Jul-24 08:34N 48°42' W 125°46'1717.1
2014-Jul-24 07:33N 48°52' W 126°07'  
2014-Jul-19 11:00N 49°18' W 127°06'2819.7 240 / 231016.0 15.013.312.0
2014-Jul-19 09:33N 49°03' W 126°29'2323.0
2014-Jul-19 08:34N 48°48' W 126°03'2322.7
2014-Jul-19 07:33N 48°37' W 125°33'2121.3
2014-Jul-19 06:33N 48°31' W 125°02'2222.0
2014-Jul-19 05:34N 48°26' W 124°29'2221.8
2014-Jul-19 04:32N 48°18' W 123°58'2019.7
2014-Jul-19 03:33N 48°14' W 123°29'1311.1
2014-Jul-19 02:23N 48°12' W 123°10'1517.7
2014-Jul-19 01:33N 48°12' W 122°48'1717.5
2014-Jul-19 00:33N 47°57' W 122°33'1717.5
2014-Jul-18 23:33N 47°40' W 122°27'4 4.0
2014-Jul-18 22:32N 47°38' W 122°23'0 0.0
2014-Jul-18 21:32N 47°38' W 122°23'0 0.0
2014-Jul-18 20:29N 47°38' W 122°23'0 0.0
2014-Jul-18 19:32N 47°38' W 122°23'0 0.0
2014-Jul-18 18:32N 47°38' W 122°23'0 0.0
2014-Jul-18 17:32N 47°38' W 122°23'0 0.0
2014-Jul-18 16:32N 47°38' W 122°23'0 0.0
2014-Jul-18 15:32N 47°38' W 122°23'0 0.0
2014-Jul-18 14:32N 47°38' W 122°23'0 0.0
2014-Jul-18 13:32N 47°38' W 122°23'0 0.3
2014-Jul-18 12:33N 47°37' W 122°23'7 7.3
2014-Jul-18 11:32N 47°44' W 122°27'1212.2
2014-Jul-18 10:34N 47°56' W 122°31'1813.1
2014-Jul-18 09:10N 48°10' W 122°48'914.2
2014-Jul-18 08:31N 48°12' W 123°01'1414.4
2014-Jul-18 07:33N 48°11' W 123°22'9 8.6
2014-Jul-18 06:29N 48°13' W 123°35'7 2.4
2014-Jul-18 03:33N 48°16' W 123°45'8 8.0
2014-Jul-18 02:33N 48°15' W 123°33'7 7.5
2014-Jul-18 01:33N 48°21' W 123°26'4 4.5
2014-Jul-18 00:33N 48°25' W 123°24'0 0.0
2014-Jul-17 23:33N 48°25' W 123°24'0 0.0
2014-Jul-17 22:33N 48°25' W 123°24'0 0.0
2014-Jul-17 21:33N 48°25' W 123°24'0 0.0
2014-Jul-17 20:33N 48°25' W 123°24'0 0.0
2014-Jul-17 19:30N 48°25' W 123°24'0 0.0
2014-Jul-17 18:33N 48°25' W 123°24'0 0.0
2014-Jul-17 17:33N 48°25' W 123°24'0 0.0
2014-Jul-17 16:33N 48°25' W 123°24'0 0.0
2014-Jul-17 15:33N 48°25' W 123°24'6 6.1
2014-Jul-17 14:34N 48°19' W 123°25'1716.0
2014-Jul-17 13:32N 48°13' W 123°48'1818.6
2014-Jul-17 12:33N 48°19' W 124°13'1717.3
2014-Jul-17 11:34N 48°26' W 124°37'1716.5
2014-Jul-17 10:32N 48°29' W 125°02'1816.3
2014-Jul-17 09:25N 48°34' W 125°28'1517.1
2014-Jul-17 08:34N 48°43' W 125°47'1717.4
2014-Jul-17 07:34N 48°53' W 126°08'1817.6
2014-Jul-17 06:33N 49°03' W 126°30'1817.7
2014-Jul-17 05:33N 49°14' W 126°52'1817.8
2014-Jul-17 04:33N 49°25' W 127°13'1817.7
2014-Jul-17 03:33N 49°36' W 127°34'64713.3
2014-Jul-15 03:00N 59°24' W 135°18'   999 / 11020.0 1.1 18.014.810.0

Dump ship's entire track history